Time;durP1;ratioP1;P1;durP2;ratioP2;P2;SDS_P1;SDS_P2;PMS_P1;PMS_P2;Temp;Humidity;BMP_temperature;BMP_pressure;BME280_temperature;BME280_humidity;BME280_pressure;Samples;Min_cycle;Max_cycle;Signal;HPM_P1;HPM_P2
2023/01/18 00:02:01;;;;;;;14.90;10.00;;;19.20;91.20;;;;;;1877938;76;21090;-85
2023/01/18 00:04:32;;;;;;;17.32;11.08;;;19.20;91.10;;;;;;1866069;76;21125;-84
2023/01/18 00:07:03;;;;;;;19.37;11.50;;;19.20;91.40;;;;;;1893684;76;21127;-84
2023/01/18 00:09:34;;;;;;;17.77;10.00;;;19.20;91.50;;;;;;1881845;76;21122;-83
2023/01/18 00:12:05;;;;;;;17.50;9.90;;;19.20;91.60;;;;;;1878835;75;21165;-83
2023/01/18 00:14:35;;;;;;;21.23;9.65;;;19.20;91.60;;;;;;1881402;76;21169;-83
2023/01/18 00:17:06;;;;;;;16.30;9.60;;;19.20;91.70;;;;;;1879961;76;21126;-83
2023/01/18 00:19:37;;;;;;;17.52;9.70;;;19.20;91.90;;;;;;1869225;76;21190;-84
2023/01/18 00:22:08;;;;;;;17.82;9.65;;;19.30;91.60;;;;;;1880608;76;21118;-84
2023/01/18 00:24:38;;;;;;;14.03;9.98;;;19.30;91.70;;;;;;1875615;76;21083;-84
2023/01/18 00:27:12;;;;;;;12.65;8.23;;;19.30;92.00;;;;;;1881119;76;21213;-82
2023/01/18 00:29:43;;;;;;;14.65;9.58;;;19.30;92.10;;;;;;1876010;76;21217;-84
2023/01/18 00:32:14;;;;;;;21.07;11.70;;;19.30;91.90;;;;;;1879570;76;21185;-84
2023/01/18 00:34:45;;;;;;;16.05;10.43;;;19.30;91.90;;;;;;1862759;76;21132;-82
2023/01/18 00:37:18;;;;;;;16.32;10.28;;;19.40;91.50;;;;;;1922533;74;21248;-83
2023/01/18 00:39:49;;;;;;;21.95;10.90;;;19.40;91.70;;;;;;1922541;75;21129;-83
2023/01/18 00:45:09;;;;;;;16.75;9.10;;;19.50;91.70;;;;;;1861240;76;21261;-82
2023/01/18 00:47:40;;;;;;;20.17;9.65;;;19.50;91.70;;;;;;1869444;76;21097;-85
2023/01/18 00:50:12;;;;;;;14.55;8.43;;;19.40;91.70;;;;;;1876348;75;21608;-84
2023/01/18 00:52:45;;;;;;;13.85;9.75;;;19.30;91.90;;;;;;1898902;75;21613;-85
2023/01/18 00:55:17;;;;;;;14.63;9.05;;;19.30;92.20;;;;;;1860471;76;21113;-84
2023/01/18 00:57:47;;;;;;;14.95;10.03;;;19.20;92.30;;;;;;1847208;76;21208;-85
2023/01/18 01:00:25;;;;;;;15.00;8.80;;;19.30;92.10;;;;;;1844207;76;21524;-84
2023/01/18 01:02:52;;;;;;;15.03;8.60;;;19.40;92.10;;;;;;1822313;77;21547;-84
2023/01/18 01:08:17;;;;;;;32.05;20.60;;;19.50;91.60;;;;;;1843431;77;21144;-84
2023/01/18 01:10:52;;;;;;;15.30;9.50;;;19.60;91.30;;;;;;1842557;77;21152;-83
2023/01/18 01:27:27;;;;;;;11.03;6.20;;;19.90;90.50;;;;;;1834138;78;21151;-83
2023/01/18 01:29:58;;;;;;;13.78;6.55;;;19.90;90.20;;;;;;1837012;77;21190;-84
2023/01/18 01:32:29;;;;;;;11.80;5.35;;;20.00;89.90;;;;;;1837481;77;21168;-84
2023/01/18 01:35:00;;;;;;;7.85;4.40;;;20.10;89.10;;;;;;1833231;78;21104;-84
2023/01/18 01:37:31;;;;;;;8.90;4.05;;;20.10;88.30;;;;;;1826120;78;21191;-84
2023/01/18 01:40:01;;;;;;;9.93;4.22;;;20.20;88.00;;;;;;1833979;77;21072;-84
2023/01/18 01:42:32;;;;;;;8.48;4.17;;;20.20;87.50;;;;;;1825404;77;21140;-85
2023/01/18 01:45:03;;;;;;;9.38;4.70;;;20.20;87.40;;;;;;1834133;78;21143;-85
2023/01/18 01:47:39;;;;;;;11.38;5.87;;;20.30;87.60;;;;;;1833615;78;21560;-84
2023/01/18 01:50:21;;;;;;;11.03;6.03;;;20.40;87.70;;;;;;1817668;78;21581;-84
2023/01/18 01:52:53;;;;;;;10.50;6.20;;;20.50;87.40;;;;;;1878454;74;21071;-85
2023/01/18 01:55:34;;;;;;;12.15;6.37;;;20.50;87.30;;;;;;1879351;76;21055;-83
2023/01/18 01:58:13;;;;;;;7.12;4.70;;;20.60;87.20;;;;;;1881918;76;21051;-84
2023/01/18 02:00:45;;;;;;;15.85;6.05;;;20.70;86.60;;;;;;1881414;76;21193;-84
2023/01/18 02:03:17;;;;;;;8.70;5.00;;;20.70;86.60;;;;;;1870967;76;21079;-83
2023/01/18 02:05:51;;;;;;;11.78;5.35;;;20.80;86.40;;;;;;1882136;76;21086;-84
2023/01/18 02:08:23;;;;;;;9.55;4.40;;;20.80;85.90;;;;;;1881726;74;21070;-83
2023/01/18 02:10:54;;;;;;;9.28;4.20;;;20.80;85.40;;;;;;1862349;76;21090;-84
2023/01/18 02:13:26;;;;;;;10.50;5.30;;;20.90;84.60;;;;;;1886988;76;21796;-84
2023/01/18 02:16:05;;;;;;;9.38;3.35;;;20.90;84.40;;;;;;1874533;76;21078;-87
2023/01/18 02:18:44;;;;;;;5.97;3.33;;;20.90;84.20;;;;;;1887440;75;21063;-84
2023/01/18 02:21:18;;;;;;;10.95;3.98;;;21.00;84.30;;;;;;1870573;76;21138;-85
2023/01/18 02:24:22;;;;;;;8.63;4.08;;;21.00;84.40;;;;;;1889326;76;21150;-85
2023/01/18 02:27:01;;;;;;;9.03;3.98;;;21.10;83.80;;;;;;1865403;75;21626;-84
2023/01/18 02:29:40;;;;;;;10.00;4.40;;;21.10;83.20;;;;;;1882335;76;21227;-82
2023/01/18 02:32:36;;;;;;;11.85;4.28;;;21.20;83.50;;;;;;1880378;75;21070;-83
2023/01/18 02:35:13;;;;;;;7.87;4.20;;;21.20;83.10;;;;;;1880841;76;21070;-83
2023/01/18 02:37:55;;;;;;;9.65;4.40;;;21.20;83.30;;;;;;1885418;75;21093;-83
2023/01/18 02:40:37;;;;;;;40.30;7.20;;;21.30;83.00;;;;;;1903125;75;21046;-83
2023/01/18 02:48:50;;;;;;;37.05;7.20;;;21.40;83.30;;;;;;1883042;75;21572;-82
2023/01/18 02:51:21;;;;;;;11.50;4.90;;;21.50;83.00;;;;;;1913030;73;21148;-82
2023/01/18 02:53:53;;;;;;;13.18;4.42;;;21.50;82.70;;;;;;1918437;75;21054;-80
2023/01/18 02:56:26;;;;;;;7.80;4.60;;;21.60;82.90;;;;;;1915083;75;21112;-82
2023/01/18 02:58:59;;;;;;;11.15;3.90;;;21.60;82.80;;;;;;1889533;76;21124;-81
2023/01/18 03:01:38;;;;;;;7.80;3.67;;;21.60;82.70;;;;;;1921292;75;21231;-82
2023/01/18 03:04:14;;;;;;;5.85;3.20;;;21.70;82.00;;;;;;1903715;75;21545;-81
2023/01/18 03:06:47;;;;;;;6.95;4.10;;;21.80;81.60;;;;;;1921877;75;21619;-83
2023/01/18 03:09:25;;;;;;;7.60;4.05;;;21.80;81.40;;;;;;1909065;75;21121;-81
2023/01/18 03:11:58;;;;;;;5.53;3.65;;;21.80;81.40;;;;;;1921133;74;21051;-79
2023/01/18 03:14:43;;;;;;;7.80;4.27;;;21.90;80.90;;;;;;1922244;75;21093;-81
2023/01/18 03:17:25;;;;;;;8.60;4.60;;;21.90;81.10;;;;;;1922000;74;21191;-81
2023/01/18 03:25:31;;;;;;;10.72;4.25;;;22.10;81.00;;;;;;1921341;75;21050;-82
2023/01/18 03:33:52;;;;;;;8.25;3.77;;;22.30;80.50;;;;;;1921840;75;21242;-83
2023/01/18 03:36:26;;;;;;;8.00;3.85;;;22.40;80.50;;;;;;1921704;74;21125;-82
2023/01/18 03:39:03;;;;;;;11.50;4.28;;;22.40;80.00;;;;;;1917002;74;21643;-81
2023/01/18 03:41:39;;;;;;;6.95;4.03;;;22.60;79.70;;;;;;1907879;75;21132;-83
2023/01/18 03:44:13;;;;;;;7.20;4.40;;;22.60;79.70;;;;;;1922992;75;21054;-82
2023/01/18 03:46:44;;;;;;;8.00;4.20;;;22.70;79.50;;;;;;1921799;75;21466;-84
2023/01/18 03:49:17;;;;;;;6.55;3.80;;;22.80;78.90;;;;;;1915164;75;21700;-82
2023/01/18 03:51:56;;;;;;;8.35;4.47;;;22.90;78.60;;;;;;1920965;74;21128;-82
2023/01/18 03:54:35;;;;;;;9.63;4.67;;;23.00;78.20;;;;;;1920598;75;21477;-85
2023/01/18 03:57:09;;;;;;;7.00;4.00;;;23.10;77.70;;;;;;1919149;75;21125;-84
2023/01/18 03:59:42;;;;;;;14.25;8.55;;;23.20;77.70;;;;;;1919407;75;21604;-84
2023/01/18 04:02:20;;;;;;;11.90;4.87;;;23.40;76.80;;;;;;1921658;75;21027;-83
2023/01/18 04:04:56;;;;;;;9.40;3.58;;;23.50;76.80;;;;;;1922091;74;21069;-88
2023/01/18 04:07:25;;;;;;;6.58;3.20;;;23.70;76.30;;;;;;1922182;74;21038;-84
2023/01/18 04:09:56;;;;;;;6.83;3.72;;;23.80;75.40;;;;;;1921962;75;21193;-81
2023/01/18 04:12:27;;;;;;;10.43;3.77;;;23.80;74.00;;;;;;1914104;75;21128;-81
2023/01/18 04:14:59;;;;;;;7.60;4.30;;;24.00;74.20;;;;;;1922808;75;21069;-82
2023/01/18 04:17:33;;;;;;;9.98;3.77;;;24.00;73.80;;;;;;1923054;75;21074;-83
2023/01/18 04:20:04;;;;;;;5.28;3.65;;;24.20;74.40;;;;;;1920799;75;21069;-82
2023/01/18 04:22:37;;;;;;;5.85;3.70;;;24.30;74.20;;;;;;1903987;74;21105;-85
2023/01/18 04:25:09;;;;;;;12.93;3.87;;;24.40;73.50;;;;;;1922693;75;21170;-82
2023/01/18 04:27:40;;;;;;;10.08;3.55;;;24.50;73.30;;;;;;1922481;75;21073;-82
2023/01/18 04:30:11;;;;;;;7.92;4.20;;;24.50;72.90;;;;;;1922465;75;21069;-83
2023/01/18 04:32:45;;;;;;;7.28;4.35;;;24.60;72.30;;;;;;1919935;74;21124;-85
2023/01/18 04:35:15;;;;;;;6.97;4.05;;;24.70;72.20;;;;;;1896453;75;21089;-84
2023/01/18 04:37:49;;;;;;;8.18;4.30;;;24.80;72.50;;;;;;1919069;75;21873;-84
2023/01/18 04:40:20;;;;;;;7.53;3.77;;;24.80;72.30;;;;;;1924015;74;21070;-84
2023/01/18 04:42:54;;;;;;;10.60;4.17;;;24.90;72.50;;;;;;1921592;74;21345;-84
2023/01/18 04:45:26;;;;;;;8.55;4.33;;;25.00;72.00;;;;;;1922867;75;21124;-84
2023/01/18 04:47:57;;;;;;;8.13;3.90;;;25.10;70.60;;;;;;1932110;73;21143;-85
2023/01/18 04:50:27;;;;;;;7.03;3.50;;;25.10;70.20;;;;;;1923907;75;21069;-82
2023/01/18 04:52:59;;;;;;;8.70;4.03;;;25.20;70.90;;;;;;1930047;74;21078;-84
2023/01/18 04:55:30;;;;;;;8.33;3.95;;;25.30;70.40;;;;;;1811466;78;21132;-86
2023/01/18 04:58:04;;;;;;;6.87;3.62;;;25.50;69.50;;;;;;1842773;78;21156;-84
2023/01/18 05:00:38;;;;;;;5.95;2.90;;;25.50;70.20;;;;;;1818768;79;21098;-85
2023/01/18 05:03:09;;;;;;;9.13;3.22;;;25.60;68.30;;;;;;1869616;76;21125;-84
2023/01/18 05:05:43;;;;;;;5.95;2.92;;;25.80;67.90;;;;;;1876090;76;21153;-85
2023/01/18 05:08:14;;;;;;;5.72;2.65;;;25.70;68.50;;;;;;1860995;76;21132;-84
2023/01/18 05:10:45;;;;;;;5.83;2.85;;;25.90;68.30;;;;;;1847001;76;21078;-83
2023/01/18 05:13:16;;;;;;;5.10;2.67;;;25.90;69.20;;;;;;1939846;73;21112;-84
2023/01/18 05:15:47;;;;;;;4.70;2.27;;;;;;;;;;1943689;73;21109;-85
2023/01/18 05:18:19;;;;;;;6.33;2.50;;;26.10;65.00;;;;;;1941144;73;21125;-85
2023/01/18 05:20:50;;;;;;;4.83;2.50;;;26.30;65.90;;;;;;1937330;74;21183;-86
2023/01/18 05:23:21;;;;;;;5.12;3.27;;;26.30;65.60;;;;;;1951293;72;21079;-85
2023/01/18 05:25:56;;;;;;;4.25;2.12;;;26.30;66.00;;;;;;1953514;73;21081;-86
2023/01/18 05:28:28;;;;;;;10.30;2.85;;;26.40;64.90;;;;;;1876129;75;21088;-84
2023/01/18 05:31:01;;;;;;;9.03;2.30;;;26.40;65.90;;;;;;1876349;76;21142;-86
2023/01/18 05:33:32;;;;;;;5.87;2.40;;;26.40;65.70;;;;;;1872575;76;21138;-85
2023/01/18 05:36:03;;;;;;;5.03;2.75;;;26.50;65.80;;;;;;1872132;77;21145;-84
2023/01/18 05:38:34;;;;;;;5.25;2.42;;;26.50;65.90;;;;;;1875709;75;21076;-86
2023/01/18 05:41:07;;;;;;;7.40;3.33;;;26.60;66.70;;;;;;1872057;76;21246;-85
2023/01/18 05:43:39;;;;;;;4.72;2.37;;;26.60;65.30;;;;;;1839897;76;21099;-83
2023/01/18 05:46:10;;;;;;;4.03;2.20;;;26.60;65.00;;;;;;1840345;76;21143;-84
2023/01/18 05:48:41;;;;;;;5.78;2.40;;;26.60;64.80;;;;;;1879198;76;21197;-84
2023/01/18 05:51:12;;;;;;;6.20;2.58;;;26.60;64.70;;;;;;1936627;74;21129;-86
2023/01/18 05:53:43;;;;;;;8.95;3.27;;;26.60;64.70;;;;;;1918730;73;21069;-84
2023/01/18 05:56:14;;;;;;;4.53;2.33;;;26.70;65.10;;;;;;1946269;73;21459;-85
2023/01/18 05:58:45;;;;;;;6.47;2.58;;;26.80;64.90;;;;;;1859099;77;21159;-84
2023/01/18 06:01:18;;;;;;;10.48;2.83;;;26.80;63.70;;;;;;1907163;75;21113;-86
2023/01/18 06:03:51;;;;;;;5.67;2.08;;;26.90;63.90;;;;;;1877129;75;21164;-85
2023/01/18 06:06:23;;;;;;;3.62;2.22;;;26.90;65.30;;;;;;1894757;75;21065;-83
2023/01/18 06:08:57;;;;;;;4.75;2.27;;;26.90;63.10;;;;;;1930947;74;21098;-83
2023/01/18 06:11:29;;;;;;;4.80;2.27;;;27.00;63.10;;;;;;1929018;74;21078;-83
2023/01/18 06:14:01;;;;;;;5.60;2.60;;;27.00;63.00;;;;;;1933371;74;21086;-83
2023/01/18 06:16:33;;;;;;;6.40;2.60;;;27.00;63.00;;;;;;1909119;75;21618;-86
2023/01/18 06:19:04;;;;;;;6.33;3.20;;;27.00;63.40;;;;;;1930591;74;21130;-85
2023/01/18 06:21:35;;;;;;;6.72;2.50;;;27.00;63.30;;;;;;1916803;74;21181;-86
2023/01/18 06:24:06;;;;;;;4.53;2.37;;;27.10;63.20;;;;;;1910261;75;21152;-86
2023/01/18 06:26:37;;;;;;;6.60;2.33;;;27.10;63.30;;;;;;1931056;74;21128;-87
2023/01/18 06:29:08;;;;;;;5.45;2.30;;;27.10;63.30;;;;;;1906679;74;21126;-85
2023/01/18 06:31:40;;;;;;;5.10;2.52;;;27.10;63.20;;;;;;1922123;74;21067;-86
2023/01/18 06:34:11;;;;;;;4.15;2.22;;;27.20;62.70;;;;;;1922709;74;21055;-84
2023/01/18 06:36:43;;;;;;;5.83;2.40;;;27.20;62.20;;;;;;1931836;74;21127;-84
2023/01/18 06:39:14;;;;;;;5.83;2.55;;;27.30;62.40;;;;;;1927222;74;21070;-85
2023/01/18 06:41:45;;;;;;;11.48;2.45;;;27.30;62.80;;;;;;1925099;74;21066;-85
2023/01/18 06:44:16;;;;;;;5.47;2.20;;;27.30;61.70;;;;;;1931824;74;21094;-86
2023/01/18 06:46:47;;;;;;;3.77;2.30;;;27.40;62.50;;;;;;1931713;73;21125;-86
2023/01/18 06:49:17;;;;;;;7.08;2.08;;;27.40;62.00;;;;;;1916280;74;21132;-85
2023/01/18 06:51:53;;;;;;;3.58;1.95;;;27.40;62.20;;;;;;1926516;74;21120;-85
2023/01/18 06:54:24;;;;;;;7.20;2.33;;;27.40;61.50;;;;;;1934662;72;21157;-85
2023/01/18 06:56:55;;;;;;;8.43;2.72;;;27.40;61.50;;;;;;1850868;77;21091;-86
2023/01/18 06:59:27;;;;;;;5.85;2.35;;;27.40;61.90;;;;;;1849974;76;21119;-87
2023/01/18 07:02:07;;;;;;;4.83;2.00;;;27.40;62.20;;;;;;1843018;76;21090;-85
2023/01/18 07:04:42;;;;;;;4.53;1.92;;;27.40;62.20;;;;;;1866347;77;21059;-87
2023/01/18 07:07:12;;;;;;;5.97;2.47;;;27.40;62.30;;;;;;1868286;76;21569;-86
2023/01/18 07:09:43;;;;;;;5.97;2.12;;;27.40;62.50;;;;;;1813562;79;21077;-85
2023/01/18 07:12:14;;;;;;;3.80;1.98;;;27.50;63.00;;;;;;1882484;76;21135;-85
2023/01/18 07:14:45;;;;;;;4.42;2.30;;;27.50;61.90;;;;;;1883749;76;21126;-85
2023/01/18 07:17:16;;;;;;;4.05;1.72;;;27.50;61.90;;;;;;1841699;78;21165;-84
2023/01/18 07:19:47;;;;;;;4.05;1.80;;;27.60;61.80;;;;;;1885115;76;21160;-86
2023/01/18 07:22:18;;;;;;;4.25;1.90;;;27.60;61.90;;;;;;1918412;74;21523;-86
2023/01/18 07:24:49;;;;;;;3.83;1.92;;;27.60;61.40;;;;;;1903093;75;21058;-86
2023/01/18 07:27:19;;;;;;;4.80;2.15;;;27.60;61.90;;;;;;1917649;74;21042;-87
2023/01/18 07:29:50;;;;;;;4.22;1.80;;;27.60;62.00;;;;;;1933023;74;21141;-85
2023/01/18 07:32:21;;;;;;;3.75;1.90;;;27.60;61.20;;;;;;1929170;74;21121;-85
2023/01/18 07:34:52;;;;;;;5.75;2.58;;;27.60;61.40;;;;;;1940975;74;21047;-85
2023/01/18 07:37:23;;;;;;;3.15;2.05;;;27.50;61.20;;;;;;1938049;74;21082;-82
2023/01/18 07:39:54;;;;;;;5.20;2.30;;;27.50;61.80;;;;;;1938171;74;21066;-84
2023/01/18 07:42:25;;;;;;;5.12;1.90;;;27.50;61.90;;;;;;1935583;74;21058;-84
2023/01/18 07:44:55;;;;;;;4.70;1.67;;;27.60;61.70;;;;;;1932802;74;21616;-85
2023/01/18 07:47:26;;;;;;;5.33;1.77;;;27.60;61.40;;;;;;1938007;74;21445;-85
2023/01/18 07:49:57;;;;;;;5.17;2.60;;;27.60;61.10;;;;;;1937048;74;21667;-85
2023/01/18 07:52:30;;;;;;;5.95;2.30;;;27.60;61.50;;;;;;1881858;76;21571;-85
2023/01/18 07:55:01;;;;;;;6.25;3.37;;;27.60;61.20;;;;;;1842809;76;21092;-86
2023/01/18 07:57:34;;;;;;;4.60;2.65;;;27.60;60.00;;;;;;1886447;76;21135;-85
2023/01/18 08:00:09;;;;;;;5.08;2.20;;;27.60;60.20;;;;;;1868196;76;21079;-86
2023/01/18 08:02:40;;;;;;;7.87;2.50;;;27.60;60.50;;;;;;1886145;76;21182;-85
2023/01/18 08:05:39;;;;;;;4.72;2.67;;;27.60;60.40;;;;;;1888430;75;21082;-87
2023/01/18 08:08:11;;;;;;;5.42;2.40;;;27.50;60.80;;;;;;1888439;76;21089;-85
2023/01/18 08:10:42;;;;;;;3.62;2.08;;;27.50;61.30;;;;;;1884749;76;21108;-86
2023/01/18 08:13:14;;;;;;;6.05;2.20;;;27.40;61.20;;;;;;1847211;78;21099;-88
2023/01/18 08:15:45;;;;;;;5.75;2.50;;;27.40;61.20;;;;;;1858093;77;21079;-87
2023/01/18 08:18:16;;;;;;;6.50;2.50;;;27.40;61.00;;;;;;1869081;76;21063;-86
2023/01/18 08:20:48;;;;;;;9.13;2.70;;;27.50;61.10;;;;;;1856560;77;21201;-86
2023/01/18 08:23:19;;;;;;;5.72;2.75;;;27.50;60.70;;;;;;1891807;75;21090;-90
2023/01/18 08:25:50;;;;;;;5.17;3.02;;;27.50;60.80;;;;;;1888328;76;21078;-88
2023/01/18 08:28:24;;;;;;;9.65;3.05;;;27.50;60.60;;;;;;1844093;77;21082;-88
2023/01/18 08:30:56;;;;;;;6.15;3.02;;;27.50;60.60;;;;;;1856896;76;21131;-88
2023/01/18 08:33:31;;;;;;;4.83;3.50;;;27.50;60.80;;;;;;1948578;73;21081;-88
2023/01/18 08:36:01;;;;;;;16.85;3.12;;;27.50;60.60;;;;;;1951239;73;21529;-86
2023/01/18 08:38:32;;;;;;;7.03;3.27;;;27.40;61.00;;;;;;1950438;73;21065;-86
2023/01/18 08:41:03;;;;;;;10.23;3.50;;;27.40;61.20;;;;;;1944776;73;21069;-88
2023/01/18 08:43:34;;;;;;;6.83;2.90;;;27.40;61.80;;;;;;1945588;73;21087;-87
2023/01/18 08:46:05;;;;;;;4.90;3.00;;;27.40;61.30;;;;;;1948981;74;21528;-88
2023/01/18 08:48:37;;;;;;;7.55;3.52;;;27.30;61.30;;;;;;1948964;74;21189;-87
2023/01/18 08:51:07;;;;;;;8.33;3.05;;;27.30;61.60;;;;;;1948995;74;21756;-89
2023/01/18 08:53:39;;;;;;;7.55;3.47;;;27.40;61.70;;;;;;1921991;73;21183;-87
2023/01/18 08:56:13;;;;;;;4.53;2.60;;;27.30;61.70;;;;;;1939657;73;21617;-89
2023/01/18 08:58:44;;;;;;;5.87;2.75;;;27.30;61.90;;;;;;1938455;74;21600;-89
2023/01/18 09:01:15;;;;;;;6.90;2.92;;;27.30;62.00;;;;;;1876678;76;21157;-87
2023/01/18 09:03:47;;;;;;;5.95;2.80;;;27.20;61.90;;;;;;1856113;76;21072;-88
2023/01/18 09:06:19;;;;;;;13.15;3.50;;;27.20;61.90;;;;;;1848369;77;21127;-88
2023/01/18 09:08:50;;;;;;;5.97;2.37;;;27.20;61.90;;;;;;1818919;79;21042;-89
2023/01/18 09:11:21;;;;;;;6.42;2.50;;;27.20;61.80;;;;;;1938590;74;21050;-88
2023/01/18 09:13:55;;;;;;;5.28;3.05;;;27.20;61.90;;;;;;1922867;73;21063;-88
2023/01/18 09:16:28;;;;;;;6.47;2.58;;;27.20;61.40;;;;;;1887226;74;21118;-87
2023/01/18 09:19:00;;;;;;;3.70;2.15;;;27.20;61.10;;;;;;1867669;75;21066;-88
2023/01/18 09:21:34;;;;;;;7.65;2.77;;;27.20;60.60;;;;;;1855518;77;21113;-88
2023/01/18 09:24:05;;;;;;;3.55;2.35;;;27.20;60.60;;;;;;1908728;74;21172;-87
2023/01/18 09:26:39;;;;;;;5.45;2.77;;;27.20;60.80;;;;;;1890199;75;21206;-88
2023/01/18 09:29:13;;;;;;;6.65;2.75;;;27.20;61.00;;;;;;1878656;76;21143;-85
2023/01/18 09:31:47;;;;;;;4.12;2.90;;;27.20;60.30;;;;;;1901359;74;21072;-87
2023/01/18 09:34:19;;;;;;;7.15;3.10;;;27.20;60.10;;;;;;1915067;74;21138;-88
2023/01/18 09:36:52;;;;;;;5.83;3.00;;;27.10;60.00;;;;;;1882098;76;21062;-87
2023/01/18 09:39:23;;;;;;;7.83;3.00;;;27.10;60.50;;;;;;1866314;76;21125;-90
2023/01/18 09:42:00;;;;;;;5.55;2.90;;;27.10;60.10;;;;;;1878706;76;21176;-89
2023/01/18 09:44:36;;;;;;;7.42;2.83;;;27.10;60.50;;;;;;1881605;76;21543;-89
2023/01/18 09:47:21;;;;;;;8.28;3.20;;;27.10;60.60;;;;;;1865998;76;21546;-87
2023/01/18 09:49:57;;;;;;;6.72;2.60;;;27.00;60.80;;;;;;1917692;74;21165;-88
2023/01/18 09:52:45;;;;;;;6.33;2.63;;;27.00;60.60;;;;;;1926084;72;21070;-87
2023/01/18 09:55:41;;;;;;;7.33;3.02;;;26.90;60.40;;;;;;1921211;74;21067;-86
2023/01/18 09:58:28;;;;;;;6.25;2.98;;;26.90;60.80;;;;;;1917284;74;21169;-87
2023/01/18 10:01:04;;;;;;;4.78;2.45;;;26.90;60.80;;;;;;1887863;76;21068;-87
2023/01/18 10:04:00;;;;;;;4.72;2.50;;;26.80;60.90;;;;;;1898445;74;21074;-86
2023/01/18 10:07:01;;;;;;;6.95;2.62;;;26.80;60.90;;;;;;1855017;77;21501;-86
2023/01/18 10:09:47;;;;;;;9.55;2.85;;;26.80;60.90;;;;;;1875055;76;21213;-88
2023/01/18 10:12:45;;;;;;;4.10;2.65;;;26.80;61.00;;;;;;1876753;76;21071;-87
2023/01/18 10:15:25;;;;;;;5.42;2.83;;;26.70;61.40;;;;;;1882807;76;21180;-84
2023/01/18 10:17:59;;;;;;;4.25;2.58;;;26.70;61.20;;;;;;1881523;76;21244;-85
2023/01/18 10:20:35;;;;;;;8.15;3.20;;;26.60;61.10;;;;;;1888142;75;21141;-85
2023/01/18 10:23:15;;;;;;;7.05;2.98;;;26.60;60.90;;;;;;1885717;76;21544;-84
2023/01/18 10:25:51;;;;;;;10.35;3.45;;;26.60;61.10;;;;;;1875927;76;21109;-83
2023/01/18 10:28:44;;;;;;;6.45;3.22;;;26.60;61.30;;;;;;1870941;76;21113;-84
2023/01/18 10:31:41;;;;;;;4.83;3.22;;;26.60;61.50;;;;;;1879001;75;21172;-84
2023/01/18 10:34:18;;;;;;;8.28;3.30;;;26.50;61.80;;;;;;1872997;76;21072;-85
2023/01/18 10:36:49;;;;;;;;;;;26.50;61.90;;;;;;1870431;75;21144;-85
2023/01/18 10:39:26;;;;;;;7.17;3.55;;;26.40;62.10;;;;;;1880154;76;20157;-84
2023/01/18 10:42:05;;;;;;;10.18;4.00;;;26.40;62.50;;;;;;1885057;75;21089;-84
2023/01/18 10:44:35;;;;;;;482.27;432.50;;;26.30;62.60;;;;;;1859428;75;21137;-86
2023/01/18 10:47:08;;;;;;;11.53;8.13;;;26.30;62.80;;;;;;1878226;75;21068;-83
2023/01/18 10:49:42;;;;;;;10.58;3.90;;;26.30;62.80;;;;;;1877891;76;21382;-84
2023/01/18 10:52:21;;;;;;;7.33;4.03;;;26.30;62.70;;;;;;1879519;76;21056;-84
2023/01/18 10:55:00;;;;;;;4.95;3.17;;;26.20;62.90;;;;;;1931278;72;21079;-86
2023/01/18 10:57:32;;;;;;;6.70;3.70;;;26.20;62.90;;;;;;1888732;76;21043;-83
2023/01/18 11:00:32;;;;;;;10.55;4.62;;;26.20;63.30;;;;;;1853370;77;21105;-84
2023/01/18 11:03:05;;;;;;;55.40;44.27;;;26.20;63.40;;;;;;1879804;75;21070;-82
2023/01/18 11:05:42;;;;;;;10.35;7.15;;;26.20;63.90;;;;;;1868516;73;21204;-84
2023/01/18 11:08:31;;;;;;;26.37;15.72;;;26.20;64.40;;;;;;1891624;75;21604;-83
2023/01/18 11:14:24;;;;;;;15.95;9.68;;;26.20;65.90;;;;;;1851395;76;21104;-84
2023/01/18 11:17:03;;;;;;;85.40;69.92;;;26.20;66.40;;;;;;1852263;76;21612;-84
2023/01/18 11:19:41;;;;;;;29.87;19.95;;;26.10;66.90;;;;;;1832170;77;21176;-84
2023/01/18 11:22:16;;;;;;;20.17;11.60;;;26.10;67.40;;;;;;1825770;77;21098;-85
2023/01/18 11:25:00;;;;;;;148.57;116.67;;;26.10;67.40;;;;;;1823562;77;21148;-84
2023/01/18 11:27:31;;;;;;;25.75;16.70;;;26.00;67.50;;;;;;1822951;79;21107;-82
2023/01/18 11:30:02;;;;;;;21.20;9.10;;;26.00;67.80;;;;;;1822666;79;21148;-83
2023/01/18 11:32:33;;;;;;;30.37;20.20;;;26.00;68.10;;;;;;1851951;76;21197;-83
2023/01/18 11:35:06;;;;;;;59.65;46.48;;;26.00;68.30;;;;;;1886577;75;21134;-84
2023/01/18 11:37:40;;;;;;;25.15;17.32;;;26.00;68.70;;;;;;1895406;75;21211;-83
2023/01/18 11:40:26;;;;;;;48.28;30.65;;;26.00;68.60;;;;;;1828875;77;21140;-83
2023/01/18 11:43:03;;;;;;;66.42;46.92;;;26.00;68.70;;;;;;1896772;75;21129;-84
2023/01/18 11:45:36;;;;;;;17.77;10.28;;;25.90;68.70;;;;;;1827589;77;21610;-84
2023/01/18 11:48:15;;;;;;;15.68;8.30;;;25.90;68.70;;;;;;1848894;77;21062;-83
2023/01/18 11:50:54;;;;;;;17.65;9.53;;;25.90;68.70;;;;;;1850104;75;21118;-84
2023/01/18 11:53:43;;;;;;;15.32;7.22;;;25.90;68.60;;;;;;1848519;77;21164;-85
2023/01/18 11:56:34;;;;;;;17.20;6.92;;;25.90;68.50;;;;;;1859747;76;21522;-83
2023/01/18 11:59:07;;;;;;;13.03;7.70;;;25.80;68.30;;;;;;1838979;75;21597;-84
2023/01/18 12:01:46;;;;;;;12.00;6.20;;;25.80;68.10;;;;;;1839009;76;21119;-82
2023/01/18 12:04:54;;;;;;;11.78;6.60;;;25.80;68.00;;;;;;1852398;76;21070;-83
2023/01/18 12:07:31;;;;;;;13.70;6.45;;;25.70;67.40;;;;;;1854068;76;21193;-84
2023/01/18 12:10:03;;;;;;;10.15;5.85;;;25.70;67.60;;;;;;1853230;76;21130;-83
2023/01/18 12:12:55;;;;;;;13.93;6.62;;;25.60;67.40;;;;;;1854446;77;21166;-83
2023/01/18 12:15:53;;;;;;;14.30;6.92;;;25.60;67.60;;;;;;1845061;76;21682;-83
2023/01/18 12:18:26;;;;;;;14.23;6.92;;;25.60;67.90;;;;;;1869164;76;21118;-84
2023/01/18 12:21:15;;;;;;;11.90;6.67;;;25.60;68.10;;;;;;1850745;76;21245;-83
2023/01/18 12:24:05;;;;;;;15.53;6.67;;;25.50;68.30;;;;;;1881347;74;21172;-82
2023/01/18 12:26:54;;;;;;;13.43;6.85;;;25.50;68.40;;;;;;1898079;74;21079;-82
2023/01/18 12:29:36;;;;;;;14.03;6.83;;;25.40;68.40;;;;;;1852984;76;21131;-84
2023/01/18 12:32:29;;;;;;;16.07;6.72;;;25.40;68.60;;;;;;1903363;74;21119;-83
2023/01/18 12:35:02;;;;;;;17.07;7.87;;;25.40;68.80;;;;;;1884483;74;21161;-83
2023/01/18 12:37:59;;;;;;;15.10;8.18;;;25.30;68.90;;;;;;1853932;75;21376;-83
2023/01/18 12:40:36;;;;;;;16.95;8.08;;;25.30;68.90;;;;;;1896431;74;21063;-84
2023/01/18 12:43:13;;;;;;;14.68;8.08;;;25.30;69.20;;;;;;1843464;76;21204;-83
2023/01/18 12:45:52;;;;;;;16.50;7.90;;;25.30;69.40;;;;;;1866208;75;21130;-84
2023/01/18 12:48:31;;;;;;;17.07;7.95;;;25.20;70.40;;;;;;1860557;76;21158;-85
2023/01/18 12:51:04;;;;;;;21.68;9.73;;;25.20;69.70;;;;;;1841083;75;21131;-83
2023/01/18 12:53:42;;;;;;;18.75;9.75;;;25.10;70.00;;;;;;1845005;75;21606;-84
2023/01/18 12:56:15;;;;;;;19.65;8.93;;;25.10;70.20;;;;;;1844744;76;21210;-83
2023/01/18 12:58:48;;;;;;;16.95;9.28;;;25.10;70.50;;;;;;1843250;76;21131;-83
2023/01/18 13:01:21;;;;;;;16.82;8.93;;;25.00;70.60;;;;;;1849057;75;21186;-84
2023/01/18 13:03:54;;;;;;;14.13;7.78;;;25.00;70.60;;;;;;1844389;75;21153;-84
2023/01/18 13:06:27;;;;;;;13.18;8.23;;;24.90;70.70;;;;;;1820373;77;21186;-83
2023/01/18 13:09:06;;;;;;;16.20;8.28;;;24.90;70.90;;;;;;1856576;76;21273;-82
2023/01/18 13:11:40;;;;;;;15.80;9.18;;;24.90;71.10;;;;;;1892305;73;21118;-82
2023/01/18 13:14:16;;;;;;;18.67;11.30;;;24.80;71.20;;;;;;1883230;74;21170;-85
2023/01/18 13:16:52;;;;;;;18.42;9.15;;;24.80;71.30;;;;;;1924095;73;21103;-83
2023/01/18 13:19:28;;;;;;;18.30;9.00;;;24.80;71.60;;;;;;1921222;73;21078;-84
2023/01/18 13:22:11;;;;;;;14.63;8.78;;;24.80;71.80;;;;;;1872099;75;21545;-84
2023/01/18 13:24:45;;;;;;;14.68;7.97;;;24.70;71.80;;;;;;1881864;73;21166;-83
2023/01/18 13:27:17;;;;;;;14.83;8.48;;;24.70;72.00;;;;;;1888454;76;21088;-83
2023/01/18 13:29:49;;;;;;;15.55;9.00;;;24.70;72.10;;;;;;1879193;75;21146;-84
2023/01/18 13:32:37;;;;;;;15.30;8.78;;;24.60;72.10;;;;;;1904415;75;21156;-85
2023/01/18 13:35:27;;;;;;;18.00;10.30;;;24.60;72.40;;;;;;1880342;75;21214;-85
2023/01/18 13:37:57;;;;;;;22.42;10.58;;;24.60;72.80;;;;;;1855182;76;21139;-84
2023/01/18 13:40:42;;;;;;;18.90;9.73;;;24.60;73.00;;;;;;1901194;75;21147;-84
2023/01/18 13:43:34;;;;;;;19.30;10.00;;;24.50;73.20;;;;;;1910835;75;21655;-85
2023/01/18 13:46:11;;;;;;;15.45;9.23;;;24.50;73.50;;;;;;1878256;74;21609;-84
2023/01/18 13:49:00;;;;;;;18.00;9.05;;;24.40;73.90;;;;;;1881944;75;21081;-83
2023/01/18 13:51:45;;;;;;;18.25;9.08;;;24.40;74.10;;;;;;1873646;75;21129;-84
2023/01/18 13:54:19;;;;;;;18.02;8.40;;;24.30;74.30;;;;;;1908135;75;21543;-83
2023/01/18 13:57:08;;;;;;;17.05;8.70;;;24.30;74.50;;;;;;1868593;74;21209;-83
2023/01/18 13:59:52;;;;;;;13.53;8.38;;;24.20;74.70;;;;;;1878447;76;21096;-82
2023/01/18 14:02:28;;;;;;;14.03;8.25;;;24.20;74.80;;;;;;1881878;76;21277;-82
2023/01/18 14:05:21;;;;;;;18.15;7.97;;;24.10;74.70;;;;;;1879409;75;21393;-83